sensor_id;sensor_type;location;lat;lon;timestamp;temperature;humidity
19941;DHT22;10132;50.864;5.176;2023-03-05T00:00:43;6.00;99.90
19941;DHT22;10132;50.864;5.176;2023-03-05T00:02:45;6.10;99.90
19941;DHT22;10132;50.864;5.176;2023-03-05T00:04:47;6.20;99.90
19941;DHT22;10132;50.864;5.176;2023-03-05T00:06:49;6.30;99.90
19941;DHT22;10132;50.864;5.176;2023-03-05T00:08:52;6.30;99.90
19941;DHT22;10132;50.864;5.176;2023-03-05T00:10:58;6.40;99.90
19941;DHT22;10132;50.864;5.176;2023-03-05T00:13:00;6.30;99.90
19941;DHT22;10132;50.864;5.176;2023-03-05T00:15:03;6.10;99.90
19941;DHT22;10132;50.864;5.176;2023-03-05T00:17:06;6.10;99.90
19941;DHT22;10132;50.864;5.176;2023-03-05T00:19:09;6.00;99.90
19941;DHT22;10132;50.864;5.176;2023-03-05T00:21:19;6.00;99.90
19941;DHT22;10132;50.864;5.176;2023-03-05T00:23:22;6.10;99.90
19941;DHT22;10132;50.864;5.176;2023-03-05T00:25:24;6.00;99.90
19941;DHT22;10132;50.864;5.176;2023-03-05T00:27:28;6.00;99.90
19941;DHT22;10132;50.864;5.176;2023-03-05T00:29:31;6.00;99.90
19941;DHT22;10132;50.864;5.176;2023-03-05T00:31:34;5.90;99.90
19941;DHT22;10132;50.864;5.176;2023-03-05T00:33:36;6.00;99.90
19941;DHT22;10132;50.864;5.176;2023-03-05T00:35:39;5.90;99.90
19941;DHT22;10132;50.864;5.176;2023-03-05T00:37:41;5.90;99.90
19941;DHT22;10132;50.864;5.176;2023-03-05T00:39:44;5.90;99.90
19941;DHT22;10132;50.864;5.176;2023-03-05T00:41:47;5.90;99.90
19941;DHT22;10132;50.864;5.176;2023-03-05T00:43:51;5.80;99.90
19941;DHT22;10132;50.864;5.176;2023-03-05T00:45:53;5.80;99.90
19941;DHT22;10132;50.864;5.176;2023-03-05T00:47:55;5.80;99.90
19941;DHT22;10132;50.864;5.176;2023-03-05T00:49:58;5.70;99.90
19941;DHT22;10132;50.864;5.176;2023-03-05T00:52:00;5.80;99.90
19941;DHT22;10132;50.864;5.176;2023-03-05T00:54:02;5.80;99.90
19941;DHT22;10132;50.864;5.176;2023-03-05T00:56:05;5.80;99.90
19941;DHT22;10132;50.864;5.176;2023-03-05T00:58:07;5.90;99.90
19941;DHT22;10132;50.864;5.176;2023-03-05T01:00:13;5.90;99.90
19941;DHT22;10132;50.864;5.176;2023-03-05T01:02:16;5.80;99.90
19941;DHT22;10132;50.864;5.176;2023-03-05T01:04:18;5.80;99.90
19941;DHT22;10132;50.864;5.176;2023-03-05T01:06:20;5.80;99.90
19941;DHT22;10132;50.864;5.176;2023-03-05T01:08:23;5.80;99.90
19941;DHT22;10132;50.864;5.176;2023-03-05T01:10:25;5.80;99.90
19941;DHT22;10132;50.864;5.176;2023-03-05T01:12:28;5.80;99.90
19941;DHT22;10132;50.864;5.176;2023-03-05T01:14:31;5.70;99.90
19941;DHT22;10132;50.864;5.176;2023-03-05T01:16:35;5.70;99.90
19941;DHT22;10132;50.864;5.176;2023-03-05T01:18:39;5.70;99.90
19941;DHT22;10132;50.864;5.176;2023-03-05T01:20:41;5.70;99.90
19941;DHT22;10132;50.864;5.176;2023-03-05T01:22:43;5.70;99.90
19941;DHT22;10132;50.864;5.176;2023-03-05T01:24:45;5.70;99.90
19941;DHT22;10132;50.864;5.176;2023-03-05T01:26:48;5.80;99.90
19941;DHT22;10132;50.864;5.176;2023-03-05T01:28:50;5.80;99.90
19941;DHT22;10132;50.864;5.176;2023-03-05T01:30:52;5.80;99.90
19941;DHT22;10132;50.864;5.176;2023-03-05T01:32:56;5.80;99.90
19941;DHT22;10132;50.864;5.176;2023-03-05T01:34:59;5.90;99.90
19941;DHT22;10132;50.864;5.176;2023-03-05T01:37:02;5.90;99.90
19941;DHT22;10132;50.864;5.176;2023-03-05T01:39:04;5.90;99.90
19941;DHT22;10132;50.864;5.176;2023-03-05T01:41:06;5.90;99.90
19941;DHT22;10132;50.864;5.176;2023-03-05T01:43:23;5.90;99.90
19941;DHT22;10132;50.864;5.176;2023-03-05T01:45:28;5.90;99.90
19941;DHT22;10132;50.864;5.176;2023-03-05T01:47:32;5.80;99.90
19941;DHT22;10132;50.864;5.176;2023-03-05T01:49:38;5.90;99.90
19941;DHT22;10132;50.864;5.176;2023-03-05T01:51:45;5.80;99.90
19941;DHT22;10132;50.864;5.176;2023-03-05T01:53:49;5.80;99.90
19941;DHT22;10132;50.864;5.176;2023-03-05T01:55:52;5.80;99.90
19941;DHT22;10132;50.864;5.176;2023-03-05T01:57:57;5.80;99.90
19941;DHT22;10132;50.864;5.176;2023-03-05T02:00:02;5.80;99.90
19941;DHT22;10132;50.864;5.176;2023-03-05T02:02:07;5.70;99.90
19941;DHT22;10132;50.864;5.176;2023-03-05T02:04:12;5.70;99.90
19941;DHT22;10132;50.864;5.176;2023-03-05T02:06:16;5.70;99.90
19941;DHT22;10132;50.864;5.176;2023-03-05T02:08:21;5.60;99.90
19941;DHT22;10132;50.864;5.176;2023-03-05T02:10:25;5.50;99.90
19941;DHT22;10132;50.864;5.176;2023-03-05T02:12:28;5.50;99.90
19941;DHT22;10132;50.864;5.176;2023-03-05T02:14:31;5.50;99.90
19941;DHT22;10132;50.864;5.176;2023-03-05T02:16:33;5.50;99.90
19941;DHT22;10132;50.864;5.176;2023-03-05T02:18:38;5.50;99.90
19941;DHT22;10132;50.864;5.176;2023-03-05T02:20:45;5.40;99.90
19941;DHT22;10132;50.864;5.176;2023-03-05T02:22:49;5.50;99.90
19941;DHT22;10132;50.864;5.176;2023-03-05T02:24:51;5.60;99.90
19941;DHT22;10132;50.864;5.176;2023-03-05T02:26:53;5.70;99.90
19941;DHT22;10132;50.864;5.176;2023-03-05T02:28:58;5.70;99.90
19941;DHT22;10132;50.864;5.176;2023-03-05T02:31:01;5.80;99.90
19941;DHT22;10132;50.864;5.176;2023-03-05T02:33:09;5.80;99.90
19941;DHT22;10132;50.864;5.176;2023-03-05T02:35:11;5.80;99.90
19941;DHT22;10132;50.864;5.176;2023-03-05T02:37:14;5.70;99.90
19941;DHT22;10132;50.864;5.176;2023-03-05T02:39:17;5.70;99.90
19941;DHT22;10132;50.864;5.176;2023-03-05T02:41:20;5.60;99.90
19941;DHT22;10132;50.864;5.176;2023-03-05T02:43:22;5.60;99.90
19941;DHT22;10132;50.864;5.176;2023-03-05T02:45:24;5.60;99.90
19941;DHT22;10132;50.864;5.176;2023-03-05T02:47:26;5.60;99.90
19941;DHT22;10132;50.864;5.176;2023-03-05T02:49:29;5.60;99.90
19941;DHT22;10132;50.864;5.176;2023-03-05T02:51:31;5.60;99.90
19941;DHT22;10132;50.864;5.176;2023-03-05T02:53:33;5.50;99.90
19941;DHT22;10132;50.864;5.176;2023-03-05T02:55:37;5.50;99.90
19941;DHT22;10132;50.864;5.176;2023-03-05T02:57:39;5.50;99.90
19941;DHT22;10132;50.864;5.176;2023-03-05T02:59:42;5.40;99.90
19941;DHT22;10132;50.864;5.176;2023-03-05T03:01:44;5.50;99.90
19941;DHT22;10132;50.864;5.176;2023-03-05T03:03:46;5.50;99.90
19941;DHT22;10132;50.864;5.176;2023-03-05T03:05:48;5.50;99.90
19941;DHT22;10132;50.864;5.176;2023-03-05T03:07:51;5.50;99.90
19941;DHT22;10132;50.864;5.176;2023-03-05T03:09:54;5.60;99.90
19941;DHT22;10132;50.864;5.176;2023-03-05T03:11:57;5.60;99.90
19941;DHT22;10132;50.864;5.176;2023-03-05T03:14:00;5.50;99.90
19941;DHT22;10132;50.864;5.176;2023-03-05T03:16:03;5.50;99.90
19941;DHT22;10132;50.864;5.176;2023-03-05T03:18:06;5.40;99.90
19941;DHT22;10132;50.864;5.176;2023-03-05T03:20:11;5.40;99.90
19941;DHT22;10132;50.864;5.176;2023-03-05T03:22:14;5.30;99.90
19941;DHT22;10132;50.864;5.176;2023-03-05T03:24:17;5.20;99.90
19941;DHT22;10132;50.864;5.176;2023-03-05T03:26:19;5.30;99.90
19941;DHT22;10132;50.864;5.176;2023-03-05T03:28:23;5.30;99.90
19941;DHT22;10132;50.864;5.176;2023-03-05T03:30:26;5.30;99.90
19941;DHT22;10132;50.864;5.176;2023-03-05T03:32:28;5.30;99.90
19941;DHT22;10132;50.864;5.176;2023-03-05T03:34:30;5.20;99.90
19941;DHT22;10132;50.864;5.176;2023-03-05T03:36:33;5.20;99.90
19941;DHT22;10132;50.864;5.176;2023-03-05T03:38:36;5.20;99.90
19941;DHT22;10132;50.864;5.176;2023-03-05T03:40:38;5.20;99.90
19941;DHT22;10132;50.864;5.176;2023-03-05T03:42:40;5.20;99.90
19941;DHT22;10132;50.864;5.176;2023-03-05T03:44:45;5.20;99.90
19941;DHT22;10132;50.864;5.176;2023-03-05T03:46:48;5.10;99.90
19941;DHT22;10132;50.864;5.176;2023-03-05T03:48:51;5.10;99.90
19941;DHT22;10132;50.864;5.176;2023-03-05T03:50:53;5.30;99.90
19941;DHT22;10132;50.864;5.176;2023-03-05T03:52:55;5.40;99.90
19941;DHT22;10132;50.864;5.176;2023-03-05T03:54:58;5.40;99.90
19941;DHT22;10132;50.864;5.176;2023-03-05T03:57:01;5.30;99.90
19941;DHT22;10132;50.864;5.176;2023-03-05T03:59:04;5.30;99.90
19941;DHT22;10132;50.864;5.176;2023-03-05T04:01:07;5.40;99.90
19941;DHT22;10132;50.864;5.176;2023-03-05T04:03:09;5.40;99.90
19941;DHT22;10132;50.864;5.176;2023-03-05T04:05:11;5.40;99.90
19941;DHT22;10132;50.864;5.176;2023-03-05T04:07:13;5.40;99.90
19941;DHT22;10132;50.864;5.176;2023-03-05T04:09:15;5.50;99.90
19941;DHT22;10132;50.864;5.176;2023-03-05T04:11:18;5.40;99.90
19941;DHT22;10132;50.864;5.176;2023-03-05T04:13:20;5.30;99.90
19941;DHT22;10132;50.864;5.176;2023-03-05T04:15:22;5.20;99.90
19941;DHT22;10132;50.864;5.176;2023-03-05T04:17:26;5.10;99.90
19941;DHT22;10132;50.864;5.176;2023-03-05T04:19:28;5.00;99.90
19941;DHT22;10132;50.864;5.176;2023-03-05T04:21:30;5.00;99.90
19941;DHT22;10132;50.864;5.176;2023-03-05T04:23:33;4.90;99.90
19941;DHT22;10132;50.864;5.176;2023-03-05T04:25:37;4.80;99.90
19941;DHT22;10132;50.864;5.176;2023-03-05T04:27:39;4.70;99.90
19941;DHT22;10132;50.864;5.176;2023-03-05T04:29:42;4.60;99.90
19941;DHT22;10132;50.864;5.176;2023-03-05T04:31:44;4.60;99.90
19941;DHT22;10132;50.864;5.176;2023-03-05T04:33:48;4.60;99.90
19941;DHT22;10132;50.864;5.176;2023-03-05T04:35:51;4.60;99.90
19941;DHT22;10132;50.864;5.176;2023-03-05T04:37:53;4.70;99.90
19941;DHT22;10132;50.864;5.176;2023-03-05T04:39:55;4.80;99.90
19941;DHT22;10132;50.864;5.176;2023-03-05T04:41:57;4.90;99.90
19941;DHT22;10132;50.864;5.176;2023-03-05T04:44:00;4.90;99.90
19941;DHT22;10132;50.864;5.176;2023-03-05T04:46:02;4.80;99.90
19941;DHT22;10132;50.864;5.176;2023-03-05T04:48:05;4.90;99.90
19941;DHT22;10132;50.864;5.176;2023-03-05T04:50:10;5.10;99.90
19941;DHT22;10132;50.864;5.176;2023-03-05T04:52:13;5.20;99.90
19941;DHT22;10132;50.864;5.176;2023-03-05T04:54:15;5.10;99.90
19941;DHT22;10132;50.864;5.176;2023-03-05T04:56:18;5.10;99.90
19941;DHT22;10132;50.864;5.176;2023-03-05T04:58:20;5.20;99.90
19941;DHT22;10132;50.864;5.176;2023-03-05T05:00:22;5.20;99.90
19941;DHT22;10132;50.864;5.176;2023-03-05T05:02:25;5.10;99.90
19941;DHT22;10132;50.864;5.176;2023-03-05T05:04:27;5.10;99.90
19941;DHT22;10132;50.864;5.176;2023-03-05T05:06:31;5.10;99.90
19941;DHT22;10132;50.864;5.176;2023-03-05T05:08:34;5.00;99.90
19941;DHT22;10132;50.864;5.176;2023-03-05T05:10:38;5.00;99.90
19941;DHT22;10132;50.864;5.176;2023-03-05T05:12:41;5.00;99.90
19941;DHT22;10132;50.864;5.176;2023-03-05T05:14:43;5.00;99.90
19941;DHT22;10132;50.864;5.176;2023-03-05T05:16:45;5.00;99.90
19941;DHT22;10132;50.864;5.176;2023-03-05T05:18:47;5.00;99.90
19941;DHT22;10132;50.864;5.176;2023-03-05T05:20:49;5.10;99.90
19941;DHT22;10132;50.864;5.176;2023-03-05T05:22:53;5.00;99.90
19941;DHT22;10132;50.864;5.176;2023-03-05T05:24:56;5.00;99.90
19941;DHT22;10132;50.864;5.176;2023-03-05T05:26:58;5.00;99.90
19941;DHT22;10132;50.864;5.176;2023-03-05T05:29:01;5.10;99.90
19941;DHT22;10132;50.864;5.176;2023-03-05T05:31:06;5.10;99.90
19941;DHT22;10132;50.864;5.176;2023-03-05T05:33:08;5.00;99.90
19941;DHT22;10132;50.864;5.176;2023-03-05T05:35:11;4.90;99.90
19941;DHT22;10132;50.864;5.176;2023-03-05T05:37:14;4.90;99.90
19941;DHT22;10132;50.864;5.176;2023-03-05T05:39:18;4.80;99.90
19941;DHT22;10132;50.864;5.176;2023-03-05T05:41:21;4.70;99.90
19941;DHT22;10132;50.864;5.176;2023-03-05T05:43:23;4.70;99.90
19941;DHT22;10132;50.864;5.176;2023-03-05T05:45:25;4.70;99.90
19941;DHT22;10132;50.864;5.176;2023-03-05T05:47:28;4.70;99.90
19941;DHT22;10132;50.864;5.176;2023-03-05T05:49:30;4.70;99.90
19941;DHT22;10132;50.864;5.176;2023-03-05T05:51:33;4.90;99.90
19941;DHT22;10132;50.864;5.176;2023-03-05T05:53:35;4.90;99.90
19941;DHT22;10132;50.864;5.176;2023-03-05T05:55:40;5.00;99.90
19941;DHT22;10132;50.864;5.176;2023-03-05T05:57:42;5.00;99.90
19941;DHT22;10132;50.864;5.176;2023-03-05T05:59:45;5.00;99.90
19941;DHT22;10132;50.864;5.176;2023-03-05T06:01:47;4.90;99.90
19941;DHT22;10132;50.864;5.176;2023-03-05T06:03:49;4.80;99.90
19941;DHT22;10132;50.864;5.176;2023-03-05T06:05:51;4.90;99.90
19941;DHT22;10132;50.864;5.176;2023-03-05T06:07:53;5.00;99.90
19941;DHT22;10132;50.864;5.176;2023-03-05T06:09:55;5.00;99.90
19941;DHT22;10132;50.864;5.176;2023-03-05T06:11:59;5.10;99.90
19941;DHT22;10132;50.864;5.176;2023-03-05T06:14:01;5.20;99.90
19941;DHT22;10132;50.864;5.176;2023-03-05T06:16:05;5.00;99.90
19941;DHT22;10132;50.864;5.176;2023-03-05T06:18:08;4.90;99.90
19941;DHT22;10132;50.864;5.176;2023-03-05T06:20:11;4.80;99.90
19941;DHT22;10132;50.864;5.176;2023-03-05T06:22:13;4.70;99.90
19941;DHT22;10132;50.864;5.176;2023-03-05T06:24:15;4.60;99.90
19941;DHT22;10132;50.864;5.176;2023-03-05T06:26:20;4.60;99.90
19941;DHT22;10132;50.864;5.176;2023-03-05T06:28:26;4.60;99.90
19941;DHT22;10132;50.864;5.176;2023-03-05T06:30:28;4.70;99.90
19941;DHT22;10132;50.864;5.176;2023-03-05T06:32:30;4.70;99.90
19941;DHT22;10132;50.864;5.176;2023-03-05T06:34:32;4.70;99.90
19941;DHT22;10132;50.864;5.176;2023-03-05T06:36:34;4.70;99.90
19941;DHT22;10132;50.864;5.176;2023-03-05T06:38:37;4.60;99.90
19941;DHT22;10132;50.864;5.176;2023-03-05T06:40:39;4.60;99.90
19941;DHT22;10132;50.864;5.176;2023-03-05T06:42:41;4.80;99.90
19941;DHT22;10132;50.864;5.176;2023-03-05T06:44:45;4.90;99.90
19941;DHT22;10132;50.864;5.176;2023-03-05T06:46:47;4.90;99.90
19941;DHT22;10132;50.864;5.176;2023-03-05T06:48:50;5.00;99.90
19941;DHT22;10132;50.864;5.176;2023-03-05T06:50:54;4.80;99.90
19941;DHT22;10132;50.864;5.176;2023-03-05T06:52:56;4.80;99.90
19941;DHT22;10132;50.864;5.176;2023-03-05T06:54:58;4.80;99.90
19941;DHT22;10132;50.864;5.176;2023-03-05T06:57:01;4.80;99.90
19941;DHT22;10132;50.864;5.176;2023-03-05T06:59:03;4.80;99.90
19941;DHT22;10132;50.864;5.176;2023-03-05T07:01:07;4.60;99.90
19941;DHT22;10132;50.864;5.176;2023-03-05T07:03:10;4.40;99.90
19941;DHT22;10132;50.864;5.176;2023-03-05T07:05:12;4.60;99.90
19941;DHT22;10132;50.864;5.176;2023-03-05T07:07:14;4.50;99.90
19941;DHT22;10132;50.864;5.176;2023-03-05T07:09:17;4.70;99.90
19941;DHT22;10132;50.864;5.176;2023-03-05T07:11:20;4.90;99.90
19941;DHT22;10132;50.864;5.176;2023-03-05T07:13:22;5.00;99.90
19941;DHT22;10132;50.864;5.176;2023-03-05T07:15:24;5.20;99.90
19941;DHT22;10132;50.864;5.176;2023-03-05T07:17:29;5.30;99.90
19941;DHT22;10132;50.864;5.176;2023-03-05T07:19:31;5.30;99.90
19941;DHT22;10132;50.864;5.176;2023-03-05T07:21:34;5.40;99.90
19941;DHT22;10132;50.864;5.176;2023-03-05T07:23:36;5.20;99.90
19941;DHT22;10132;50.864;5.176;2023-03-05T07:25:39;5.20;99.90
19941;DHT22;10132;50.864;5.176;2023-03-05T07:27:41;5.10;99.90
19941;DHT22;10132;50.864;5.176;2023-03-05T07:29:43;5.10;99.90
19941;DHT22;10132;50.864;5.176;2023-03-05T07:31:45;5.00;99.90
19941;DHT22;10132;50.864;5.176;2023-03-05T07:33:49;5.00;99.90
19941;DHT22;10132;50.864;5.176;2023-03-05T07:35:53;5.10;99.90
19941;DHT22;10132;50.864;5.176;2023-03-05T07:37:55;5.00;99.90
19941;DHT22;10132;50.864;5.176;2023-03-05T07:39:57;5.00;99.90
19941;DHT22;10132;50.864;5.176;2023-03-05T07:42:00;5.10;99.90
19941;DHT22;10132;50.864;5.176;2023-03-05T07:44:02;5.10;99.90
19941;DHT22;10132;50.864;5.176;2023-03-05T07:46:05;5.00;99.90
19941;DHT22;10132;50.864;5.176;2023-03-05T07:48:12;5.10;99.90
19941;DHT22;10132;50.864;5.176;2023-03-05T07:50:17;5.10;99.90
19941;DHT22;10132;50.864;5.176;2023-03-05T07:52:19;5.20;99.90
19941;DHT22;10132;50.864;5.176;2023-03-05T07:54:21;5.10;99.90
19941;DHT22;10132;50.864;5.176;2023-03-05T07:56:25;5.10;99.90
19941;DHT22;10132;50.864;5.176;2023-03-05T07:58:28;5.10;99.90
19941;DHT22;10132;50.864;5.176;2023-03-05T08:00:31;5.20;99.90
19941;DHT22;10132;50.864;5.176;2023-03-05T08:02:33;5.40;99.90
19941;DHT22;10132;50.864;5.176;2023-03-05T08:04:35;5.40;99.90
19941;DHT22;10132;50.864;5.176;2023-03-05T08:06:40;5.30;99.90
19941;DHT22;10132;50.864;5.176;2023-03-05T08:08:43;5.40;99.90
19941;DHT22;10132;50.864;5.176;2023-03-05T08:10:46;5.50;99.90
19941;DHT22;10132;50.864;5.176;2023-03-05T08:12:48;5.40;99.90
19941;DHT22;10132;50.864;5.176;2023-03-05T08:14:50;5.50;99.90
19941;DHT22;10132;50.864;5.176;2023-03-05T08:16:52;5.70;99.90
19941;DHT22;10132;50.864;5.176;2023-03-05T08:18:55;5.80;99.90
19941;DHT22;10132;50.864;5.176;2023-03-05T08:20:57;5.90;99.90
19941;DHT22;10132;50.864;5.176;2023-03-05T08:23:02;5.70;99.90
19941;DHT22;10132;50.864;5.176;2023-03-05T08:25:05;5.70;99.90
19941;DHT22;10132;50.864;5.176;2023-03-05T08:27:08;5.80;99.90
19941;DHT22;10132;50.864;5.176;2023-03-05T08:29:10;5.60;99.90
19941;DHT22;10132;50.864;5.176;2023-03-05T08:31:13;5.60;99.90
19941;DHT22;10132;50.864;5.176;2023-03-05T08:33:16;5.60;99.90
19941;DHT22;10132;50.864;5.176;2023-03-05T08:35:19;5.50;99.90
19941;DHT22;10132;50.864;5.176;2023-03-05T08:37:22;5.50;99.90
19941;DHT22;10132;50.864;5.176;2023-03-05T08:39:26;5.50;99.90
19941;DHT22;10132;50.864;5.176;2023-03-05T08:41:29;5.70;99.90
19941;DHT22;10132;50.864;5.176;2023-03-05T08:43:32;6.00;99.90
19941;DHT22;10132;50.864;5.176;2023-03-05T08:45:34;6.00;99.90
19941;DHT22;10132;50.864;5.176;2023-03-05T08:47:36;6.10;99.90
19941;DHT22;10132;50.864;5.176;2023-03-05T08:49:38;5.90;99.90
19941;DHT22;10132;50.864;5.176;2023-03-05T08:51:42;5.90;99.90
19941;DHT22;10132;50.864;5.176;2023-03-05T08:53:45;6.10;99.90
19941;DHT22;10132;50.864;5.176;2023-03-05T08:55:54;6.00;99.90
19941;DHT22;10132;50.864;5.176;2023-03-05T08:57:56;6.00;99.90
19941;DHT22;10132;50.864;5.176;2023-03-05T08:59:59;6.10;99.90
19941;DHT22;10132;50.864;5.176;2023-03-05T09:02:01;6.10;99.90
19941;DHT22;10132;50.864;5.176;2023-03-05T09:04:04;6.30;99.90
19941;DHT22;10132;50.864;5.176;2023-03-05T09:06:07;6.40;99.90
19941;DHT22;10132;50.864;5.176;2023-03-05T09:08:11;6.40;99.90
19941;DHT22;10132;50.864;5.176;2023-03-05T09:10:14;6.10;99.90
19941;DHT22;10132;50.864;5.176;2023-03-05T09:12:19;5.90;99.90
19941;DHT22;10132;50.864;5.176;2023-03-05T09:14:22;6.00;99.90
19941;DHT22;10132;50.864;5.176;2023-03-05T09:16:24;6.00;99.90
19941;DHT22;10132;50.864;5.176;2023-03-05T09:18:26;6.10;99.90
19941;DHT22;10132;50.864;5.176;2023-03-05T09:20:29;6.30;99.90
19941;DHT22;10132;50.864;5.176;2023-03-05T09:22:32;6.20;99.90
19941;DHT22;10132;50.864;5.176;2023-03-05T09:24:36;6.30;99.90
19941;DHT22;10132;50.864;5.176;2023-03-05T09:26:38;6.40;99.90
19941;DHT22;10132;50.864;5.176;2023-03-05T09:28:43;6.40;99.90
19941;DHT22;10132;50.864;5.176;2023-03-05T09:30:46;6.40;99.90
19941;DHT22;10132;50.864;5.176;2023-03-05T09:32:48;6.30;99.90
19941;DHT22;10132;50.864;5.176;2023-03-05T09:34:50;6.30;99.90
19941;DHT22;10132;50.864;5.176;2023-03-05T09:36:53;6.40;99.90
19941;DHT22;10132;50.864;5.176;2023-03-05T09:38:55;6.40;99.90
19941;DHT22;10132;50.864;5.176;2023-03-05T09:41:01;6.40;99.90
19941;DHT22;10132;50.864;5.176;2023-03-05T09:43:15;6.30;99.90
19941;DHT22;10132;50.864;5.176;2023-03-05T09:45:26;6.30;99.90
19941;DHT22;10132;50.864;5.176;2023-03-05T09:47:48;6.40;99.90
19941;DHT22;10132;50.864;5.176;2023-03-05T09:49:58;6.30;99.90
19941;DHT22;10132;50.864;5.176;2023-03-05T09:52:05;6.40;99.90
19941;DHT22;10132;50.864;5.176;2023-03-05T09:54:13;6.40;99.90
19941;DHT22;10132;50.864;5.176;2023-03-05T09:56:22;6.30;99.90
19941;DHT22;10132;50.864;5.176;2023-03-05T09:58:33;6.40;99.90
19941;DHT22;10132;50.864;5.176;2023-03-05T10:00:38;6.40;99.90
19941;DHT22;10132;50.864;5.176;2023-03-05T10:02:48;6.30;99.90
19941;DHT22;10132;50.864;5.176;2023-03-05T10:04:57;6.20;99.90
19941;DHT22;10132;50.864;5.176;2023-03-05T10:07:04;6.10;99.90
19941;DHT22;10132;50.864;5.176;2023-03-05T10:09:15;6.20;99.90
19941;DHT22;10132;50.864;5.176;2023-03-05T10:11:38;6.20;99.90
19941;DHT22;10132;50.864;5.176;2023-03-05T10:13:42;6.30;99.90
19941;DHT22;10132;50.864;5.176;2023-03-05T10:15:54;6.30;99.90
19941;DHT22;10132;50.864;5.176;2023-03-05T10:18:10;6.50;99.90
19941;DHT22;10132;50.864;5.176;2023-03-05T10:20:24;6.40;99.90
19941;DHT22;10132;50.864;5.176;2023-03-05T10:22:39;6.30;99.90
19941;DHT22;10132;50.864;5.176;2023-03-05T10:24:54;6.30;99.90
19941;DHT22;10132;50.864;5.176;2023-03-05T10:27:00;6.40;99.90
19941;DHT22;10132;50.864;5.176;2023-03-05T10:29:17;6.50;99.90
19941;DHT22;10132;50.864;5.176;2023-03-05T10:31:43;6.60;99.90
19941;DHT22;10132;50.864;5.176;2023-03-05T10:33:56;6.70;99.90
19941;DHT22;10132;50.864;5.176;2023-03-05T10:36:26;6.60;99.90
19941;DHT22;10132;50.864;5.176;2023-03-05T10:38:43;6.70;99.90
19941;DHT22;10132;50.864;5.176;2023-03-05T10:40:50;6.70;99.90
19941;DHT22;10132;50.864;5.176;2023-03-05T10:43:00;6.80;99.90
19941;DHT22;10132;50.864;5.176;2023-03-05T10:45:13;6.90;99.90
19941;DHT22;10132;50.864;5.176;2023-03-05T10:47:23;6.90;99.90
19941;DHT22;10132;50.864;5.176;2023-03-05T10:49:30;6.80;99.90
19941;DHT22;10132;50.864;5.176;2023-03-05T10:51:36;6.60;99.90
19941;DHT22;10132;50.864;5.176;2023-03-05T10:53:51;6.70;99.90
19941;DHT22;10132;50.864;5.176;2023-03-05T10:55:55;6.60;99.90
19941;DHT22;10132;50.864;5.176;2023-03-05T10:58:10;6.50;99.90
19941;DHT22;10132;50.864;5.176;2023-03-05T11:00:18;6.50;99.90
19941;DHT22;10132;50.864;5.176;2023-03-05T11:02:22;6.50;99.90
19941;DHT22;10132;50.864;5.176;2023-03-05T11:04:26;6.60;99.90
19941;DHT22;10132;50.864;5.176;2023-03-05T11:06:35;6.60;99.90
19941;DHT22;10132;50.864;5.176;2023-03-05T11:08:38;6.60;99.90
19941;DHT22;10132;50.864;5.176;2023-03-05T11:10:40;6.70;99.90
19941;DHT22;10132;50.864;5.176;2023-03-05T11:12:43;6.70;99.90
19941;DHT22;10132;50.864;5.176;2023-03-05T11:15:02;6.60;99.90
19941;DHT22;10132;50.864;5.176;2023-03-05T11:17:26;6.70;99.90
19941;DHT22;10132;50.864;5.176;2023-03-05T11:19:31;6.80;99.90
19941;DHT22;10132;50.864;5.176;2023-03-05T11:21:34;6.90;99.90
19941;DHT22;10132;50.864;5.176;2023-03-05T11:23:37;6.80;99.90
19941;DHT22;10132;50.864;5.176;2023-03-05T11:25:52;6.80;99.90
19941;DHT22;10132;50.864;5.176;2023-03-05T11:27:56;6.90;99.90
19941;DHT22;10132;50.864;5.176;2023-03-05T11:29:59;7.00;99.90
19941;DHT22;10132;50.864;5.176;2023-03-05T11:32:15;7.00;99.90
19941;DHT22;10132;50.864;5.176;2023-03-05T11:34:25;7.60;99.90
19941;DHT22;10132;50.864;5.176;2023-03-05T11:36:32;7.80;99.90
19941;DHT22;10132;50.864;5.176;2023-03-05T11:38:44;7.90;99.90
19941;DHT22;10132;50.864;5.176;2023-03-05T11:40:48;7.90;99.90
19941;DHT22;10132;50.864;5.176;2023-03-05T11:42:54;7.90;99.90
19941;DHT22;10132;50.864;5.176;2023-03-05T11:44:56;7.90;99.90
19941;DHT22;10132;50.864;5.176;2023-03-05T11:47:02;7.80;99.90
19941;DHT22;10132;50.864;5.176;2023-03-05T11:49:06;7.70;99.90
19941;DHT22;10132;50.864;5.176;2023-03-05T11:51:17;7.70;99.90
19941;DHT22;10132;50.864;5.176;2023-03-05T11:53:23;7.90;99.90
19941;DHT22;10132;50.864;5.176;2023-03-05T11:55:30;7.90;99.90
19941;DHT22;10132;50.864;5.176;2023-03-05T11:57:40;7.90;99.90
19941;DHT22;10132;50.864;5.176;2023-03-05T11:59:44;7.70;99.90
19941;DHT22;10132;50.864;5.176;2023-03-05T12:01:49;7.70;99.90
19941;DHT22;10132;50.864;5.176;2023-03-05T12:03:52;7.80;99.90
19941;DHT22;10132;50.864;5.176;2023-03-05T12:05:57;8.00;99.90
19941;DHT22;10132;50.864;5.176;2023-03-05T12:08:03;7.80;99.90
19941;DHT22;10132;50.864;5.176;2023-03-05T12:10:13;7.80;99.90
19941;DHT22;10132;50.864;5.176;2023-03-05T12:12:28;8.10;99.90
19941;DHT22;10132;50.864;5.176;2023-03-05T12:14:40;8.10;99.90
19941;DHT22;10132;50.864;5.176;2023-03-05T12:16:49;8.20;99.90
19941;DHT22;10132;50.864;5.176;2023-03-05T12:19:09;8.00;99.90
19941;DHT22;10132;50.864;5.176;2023-03-05T12:21:16;7.90;99.90
19941;DHT22;10132;50.864;5.176;2023-03-05T12:23:24;8.00;99.90
19941;DHT22;10132;50.864;5.176;2023-03-05T12:25:45;7.70;99.90
19941;DHT22;10132;50.864;5.176;2023-03-05T12:27:47;7.50;99.90
19941;DHT22;10132;50.864;5.176;2023-03-05T12:29:50;7.50;99.90
19941;DHT22;10132;50.864;5.176;2023-03-05T12:31:57;7.70;99.90
19941;DHT22;10132;50.864;5.176;2023-03-05T12:36:58;7.40;99.90
19941;DHT22;10132;50.864;5.176;2023-03-05T12:39:41;7.20;99.90
19941;DHT22;10132;50.864;5.176;2023-03-05T12:41:47;7.40;99.90
19941;DHT22;10132;50.864;5.176;2023-03-05T12:44:13;7.40;99.90
19941;DHT22;10132;50.864;5.176;2023-03-05T12:46:24;7.40;99.90
19941;DHT22;10132;50.864;5.176;2023-03-05T12:48:42;7.40;99.90
19941;DHT22;10132;50.864;5.176;2023-03-05T12:50:49;7.60;99.90
19941;DHT22;10132;50.864;5.176;2023-03-05T12:52:53;7.90;99.90
19941;DHT22;10132;50.864;5.176;2023-03-05T12:55:15;7.80;99.90
19941;DHT22;10132;50.864;5.176;2023-03-05T12:57:22;7.90;99.90
19941;DHT22;10132;50.864;5.176;2023-03-05T12:59:37;8.10;99.90
19941;DHT22;10132;50.864;5.176;2023-03-05T13:01:45;8.60;99.90
19941;DHT22;10132;50.864;5.176;2023-03-05T13:03:53;8.50;99.90
19941;DHT22;10132;50.864;5.176;2023-03-05T13:05:58;8.20;99.90
19941;DHT22;10132;50.864;5.176;2023-03-05T13:08:11;8.20;99.90
19941;DHT22;10132;50.864;5.176;2023-03-05T13:10:23;8.20;99.90
19941;DHT22;10132;50.864;5.176;2023-03-05T13:12:28;8.20;99.90
19941;DHT22;10132;50.864;5.176;2023-03-05T13:14:41;8.20;99.90
19941;DHT22;10132;50.864;5.176;2023-03-05T13:16:44;8.10;99.90
19941;DHT22;10132;50.864;5.176;2023-03-05T13:18:47;8.00;99.90
19941;DHT22;10132;50.864;5.176;2023-03-05T13:21:00;7.80;99.90
19941;DHT22;10132;50.864;5.176;2023-03-05T13:23:13;7.70;99.90